Kimberlin Heights, Tennessee
Current Conditions -  °F | °C
As of 1:53 PM on Thursday 30 Oct 2014 (Local Time) from KTYS Reporting Station
Clear Clear  
Wind Chill: 57°   Ceiling: Unl
Heat Index: 57°   Visibility: 10mi
Dew Point: 40°   Wind: 5mph
Humidity: 53%   Direction: 170°S
Pressure: 30.06"   Gusts: NA
Location:  35.9105°N, 83.8544°W
Report Text: KTYS 301753Z 17004KT 10SM CLR 14/04 A3006 RMK AO2 SLP179 T01390044 10150 20039 58017
Loading
Personal Weather Stations






























Interactive Weather Map
Tropical Storm Tracking
New forecast layout! Learn more

10-Day Weather Forecast

Advertisements
Track Severe Weather on mobile